sensor_id;sensor_type;location;lat;lon;timestamp;P1;durP1;ratioP1;P2;durP2;ratioP2
14663;SDS011;7419;52.184;5.944;2023-05-07T00:03:17;1.40;;;1.29;;
14663;SDS011;7419;52.184;5.944;2023-05-07T00:03:17;1.56;;;1.46;;
14663;SDS011;7419;52.184;5.944;2023-05-07T00:03:17;1.48;;;1.39;;
14663;SDS011;7419;52.184;5.944;2023-05-07T00:03:56;2.30;;;1.30;;
14663;SDS011;7419;52.184;5.944;2023-05-07T00:04:56;1.76;;;1.61;;
14663;SDS011;7419;52.184;5.944;2023-05-07T00:05:56;2.03;;;1.46;;
14663;SDS011;7419;52.184;5.944;2023-05-07T00:06:56;1.90;;;1.40;;
14663;SDS011;7419;52.184;5.944;2023-05-07T00:07:56;2.42;;;1.46;;
14663;SDS011;7419;52.184;5.944;2023-05-07T00:08:56;1.73;;;1.63;;
14663;SDS011;7419;52.184;5.944;2023-05-07T00:09:56;1.83;;;1.64;;
14663;SDS011;7419;52.184;5.944;2023-05-07T00:10:56;2.17;;;1.62;;
14663;SDS011;7419;52.184;5.944;2023-05-07T00:11:56;2.17;;;1.71;;
14663;SDS011;7419;52.184;5.944;2023-05-07T00:12:56;2.16;;;1.50;;
14663;SDS011;7419;52.184;5.944;2023-05-07T00:13:56;2.88;;;1.64;;
14663;SDS011;7419;52.184;5.944;2023-05-07T00:14:56;1.97;;;1.52;;
14663;SDS011;7419;52.184;5.944;2023-05-07T00:15:56;1.95;;;1.57;;
14663;SDS011;7419;52.184;5.944;2023-05-07T00:16:56;2.87;;;1.97;;
14663;SDS011;7419;52.184;5.944;2023-05-07T00:17:57;3.01;;;1.73;;
14663;SDS011;7419;52.184;5.944;2023-05-07T00:18:57;2.10;;;1.66;;
14663;SDS011;7419;52.184;5.944;2023-05-07T00:19:57;2.02;;;1.81;;
14663;SDS011;7419;52.184;5.944;2023-05-07T00:20:57;4.02;;;2.05;;
14663;SDS011;7419;52.184;5.944;2023-05-07T00:21:58;2.54;;;1.60;;
14663;SDS011;7419;52.184;5.944;2023-05-07T00:22:57;1.89;;;1.60;;
14663;SDS011;7419;52.184;5.944;2023-05-07T00:23:57;2.76;;;1.89;;
14663;SDS011;7419;52.184;5.944;2023-05-07T00:24:57;1.89;;;1.67;;
14663;SDS011;7419;52.184;5.944;2023-05-07T00:25:57;3.25;;;1.95;;
14663;SDS011;7419;52.184;5.944;2023-05-07T00:26:57;2.09;;;1.93;;
14663;SDS011;7419;52.184;5.944;2023-05-07T00:27:57;2.58;;;1.60;;
14663;SDS011;7419;52.184;5.944;2023-05-07T00:28:57;3.28;;;1.91;;
14663;SDS011;7419;52.184;5.944;2023-05-07T00:29:57;2.08;;;1.75;;
14663;SDS011;7419;52.184;5.944;2023-05-07T00:30:57;3.23;;;2.05;;
14663;SDS011;7419;52.184;5.944;2023-05-07T00:31:57;3.61;;;1.87;;
14663;SDS011;7419;52.184;5.944;2023-05-07T00:32:57;1.98;;;1.68;;
14663;SDS011;7419;52.184;5.944;2023-05-07T00:33:58;1.52;;;1.46;;
14663;SDS011;7419;52.184;5.944;2023-05-07T00:34:58;2.17;;;1.85;;
14663;SDS011;7419;52.184;5.944;2023-05-07T00:35:58;2.14;;;1.93;;
14663;SDS011;7419;52.184;5.944;2023-05-07T00:36:58;2.46;;;1.74;;
14663;SDS011;7419;52.184;5.944;2023-05-07T00:37:58;1.87;;;1.72;;
14663;SDS011;7419;52.184;5.944;2023-05-07T00:38:58;3.99;;;1.45;;
14663;SDS011;7419;52.184;5.944;2023-05-07T00:39:58;4.26;;;1.64;;
14663;SDS011;7419;52.184;5.944;2023-05-07T00:40:58;1.64;;;1.55;;
14663;SDS011;7419;52.184;5.944;2023-05-07T00:41:58;1.67;;;1.56;;
14663;SDS011;7419;52.184;5.944;2023-05-07T00:42:58;1.78;;;1.64;;
14663;SDS011;7419;52.184;5.944;2023-05-07T00:43:58;2.56;;;2.00;;
14663;SDS011;7419;52.184;5.944;2023-05-07T00:44:58;2.84;;;2.17;;
14663;SDS011;7419;52.184;5.944;2023-05-07T00:45:59;2.82;;;2.56;;
14663;SDS011;7419;52.184;5.944;2023-05-07T00:46:58;2.05;;;1.88;;
14663;SDS011;7419;52.184;5.944;2023-05-07T00:47:59;1.40;;;1.26;;
14663;SDS011;7419;52.184;5.944;2023-05-07T00:48:59;3.94;;;1.90;;
14663;SDS011;7419;52.184;5.944;2023-05-07T00:49:59;3.77;;;1.87;;
14663;SDS011;7419;52.184;5.944;2023-05-07T00:50:59;2.51;;;1.72;;
14663;SDS011;7419;52.184;5.944;2023-05-07T00:51:59;2.70;;;1.96;;
14663;SDS011;7419;52.184;5.944;2023-05-07T00:52:59;2.29;;;2.10;;
14663;SDS011;7419;52.184;5.944;2023-05-07T00:53:59;2.24;;;1.63;;
14663;SDS011;7419;52.184;5.944;2023-05-07T00:54:59;1.89;;;1.73;;
14663;SDS011;7419;52.184;5.944;2023-05-07T00:55:59;2.86;;;2.30;;
14663;SDS011;7419;52.184;5.944;2023-05-07T00:56:59;2.99;;;2.05;;
14663;SDS011;7419;52.184;5.944;2023-05-07T00:57:59;2.74;;;2.12;;
14663;SDS011;7419;52.184;5.944;2023-05-07T00:59:00;2.32;;;2.04;;
14663;SDS011;7419;52.184;5.944;2023-05-07T00:59:59;2.16;;;2.03;;
14663;SDS011;7419;52.184;5.944;2023-05-07T01:00:59;2.17;;;2.07;;
14663;SDS011;7419;52.184;5.944;2023-05-07T01:01:59;2.37;;;1.97;;
14663;SDS011;7419;52.184;5.944;2023-05-07T01:02:59;2.15;;;2.00;;
14663;SDS011;7419;52.184;5.944;2023-05-07T01:03:59;2.35;;;2.19;;
14663;SDS011;7419;52.184;5.944;2023-05-07T01:04:59;2.04;;;1.82;;
14663;SDS011;7419;52.184;5.944;2023-05-07T01:06:00;2.26;;;1.92;;
14663;SDS011;7419;52.184;5.944;2023-05-07T01:07:00;2.20;;;1.53;;
14663;SDS011;7419;52.184;5.944;2023-05-07T01:08:00;2.58;;;2.35;;
14663;SDS011;7419;52.184;5.944;2023-05-07T01:09:00;2.15;;;1.97;;
14663;SDS011;7419;52.184;5.944;2023-05-07T01:10:00;2.49;;;1.70;;
14663;SDS011;7419;52.184;5.944;2023-05-07T01:11:00;2.68;;;1.46;;
14663;SDS011;7419;52.184;5.944;2023-05-07T01:12:00;1.79;;;1.67;;
14663;SDS011;7419;52.184;5.944;2023-05-07T01:13:00;1.96;;;1.69;;
14663;SDS011;7419;52.184;5.944;2023-05-07T01:14:00;2.48;;;1.80;;
14663;SDS011;7419;52.184;5.944;2023-05-07T01:15:00;2.23;;;1.79;;
14663;SDS011;7419;52.184;5.944;2023-05-07T01:16:00;2.27;;;1.73;;
14663;SDS011;7419;52.184;5.944;2023-05-07T01:17:00;2.44;;;2.18;;
14663;SDS011;7419;52.184;5.944;2023-05-07T01:18:00;1.63;;;1.51;;
14663;SDS011;7419;52.184;5.944;2023-05-07T01:19:00;2.09;;;1.96;;
14663;SDS011;7419;52.184;5.944;2023-05-07T01:20:00;3.19;;;2.23;;
14663;SDS011;7419;52.184;5.944;2023-05-07T01:21:00;2.20;;;1.93;;
14663;SDS011;7419;52.184;5.944;2023-05-07T01:22:01;2.19;;;1.95;;
14663;SDS011;7419;52.184;5.944;2023-05-07T01:23:00;2.35;;;2.15;;
14663;SDS011;7419;52.184;5.944;2023-05-07T01:24:00;3.10;;;1.91;;
14663;SDS011;7419;52.184;5.944;2023-05-07T01:25:01;2.20;;;2.00;;
14663;SDS011;7419;52.184;5.944;2023-05-07T01:26:01;2.32;;;1.92;;
14663;SDS011;7419;52.184;5.944;2023-05-07T01:27:01;2.64;;;2.28;;
14663;SDS011;7419;52.184;5.944;2023-05-07T01:28:01;2.27;;;1.75;;
14663;SDS011;7419;52.184;5.944;2023-05-07T01:29:01;2.23;;;1.83;;
14663;SDS011;7419;52.184;5.944;2023-05-07T01:30:01;1.90;;;1.80;;
14663;SDS011;7419;52.184;5.944;2023-05-07T01:31:02;2.90;;;2.02;;
14663;SDS011;7419;52.184;5.944;2023-05-07T01:32:01;1.68;;;1.43;;
14663;SDS011;7419;52.184;5.944;2023-05-07T01:33:02;2.32;;;2.00;;
14663;SDS011;7419;52.184;5.944;2023-05-07T01:34:01;4.14;;;1.84;;
14663;SDS011;7419;52.184;5.944;2023-05-07T01:35:01;5.90;;;1.81;;
14663;SDS011;7419;52.184;5.944;2023-05-07T01:36:01;2.10;;;1.73;;
14663;SDS011;7419;52.184;5.944;2023-05-07T01:37:01;1.94;;;1.82;;
14663;SDS011;7419;52.184;5.944;2023-05-07T01:38:01;3.82;;;2.31;;
14663;SDS011;7419;52.184;5.944;2023-05-07T01:39:02;3.23;;;2.17;;
14663;SDS011;7419;52.184;5.944;2023-05-07T01:40:01;2.44;;;1.83;;
14663;SDS011;7419;52.184;5.944;2023-05-07T01:41:02;2.22;;;1.63;;
14663;SDS011;7419;52.184;5.944;2023-05-07T01:42:02;2.74;;;1.99;;
14663;SDS011;7419;52.184;5.944;2023-05-07T01:43:02;2.48;;;1.94;;
14663;SDS011;7419;52.184;5.944;2023-05-07T01:44:02;1.85;;;1.74;;
14663;SDS011;7419;52.184;5.944;2023-05-07T01:45:02;2.94;;;2.19;;
14663;SDS011;7419;52.184;5.944;2023-05-07T01:46:02;2.78;;;2.39;;
14663;SDS011;7419;52.184;5.944;2023-05-07T01:47:02;2.30;;;2.11;;
14663;SDS011;7419;52.184;5.944;2023-05-07T01:48:02;2.49;;;2.14;;
14663;SDS011;7419;52.184;5.944;2023-05-07T01:49:02;2.47;;;2.22;;
14663;SDS011;7419;52.184;5.944;2023-05-07T01:50:03;3.11;;;2.11;;
14663;SDS011;7419;52.184;5.944;2023-05-07T01:51:02;2.85;;;2.22;;
14663;SDS011;7419;52.184;5.944;2023-05-07T01:52:02;3.69;;;1.93;;
14663;SDS011;7419;52.184;5.944;2023-05-07T01:53:02;2.09;;;1.92;;
14663;SDS011;7419;52.184;5.944;2023-05-07T01:54:02;3.68;;;2.11;;
14663;SDS011;7419;52.184;5.944;2023-05-07T01:55:03;3.13;;;1.89;;
14663;SDS011;7419;52.184;5.944;2023-05-07T01:56:03;2.05;;;1.89;;
14663;SDS011;7419;52.184;5.944;2023-05-07T01:57:03;2.47;;;1.91;;
14663;SDS011;7419;52.184;5.944;2023-05-07T01:58:03;3.21;;;2.47;;
14663;SDS011;7419;52.184;5.944;2023-05-07T01:59:03;2.41;;;2.18;;
14663;SDS011;7419;52.184;5.944;2023-05-07T02:00:05;2.37;;;2.17;;
14663;SDS011;7419;52.184;5.944;2023-05-07T02:01:03;2.77;;;2.07;;
14663;SDS011;7419;52.184;5.944;2023-05-07T02:02:03;2.39;;;2.09;;
14663;SDS011;7419;52.184;5.944;2023-05-07T02:03:03;2.12;;;1.99;;
14663;SDS011;7419;52.184;5.944;2023-05-07T02:04:03;2.22;;;1.91;;
14663;SDS011;7419;52.184;5.944;2023-05-07T02:05:03;2.08;;;1.96;;
14663;SDS011;7419;52.184;5.944;2023-05-07T02:06:03;2.24;;;1.89;;
14663;SDS011;7419;52.184;5.944;2023-05-07T02:07:03;2.59;;;2.39;;
14663;SDS011;7419;52.184;5.944;2023-05-07T02:08:03;2.40;;;2.01;;
14663;SDS011;7419;52.184;5.944;2023-05-07T02:09:04;2.12;;;2.02;;
14663;SDS011;7419;52.184;5.944;2023-05-07T02:10:04;2.64;;;1.95;;
14663;SDS011;7419;52.184;5.944;2023-05-07T02:11:03;2.52;;;1.93;;
14663;SDS011;7419;52.184;5.944;2023-05-07T02:12:04;2.14;;;2.00;;
14663;SDS011;7419;52.184;5.944;2023-05-07T02:13:04;1.93;;;1.77;;
14663;SDS011;7419;52.184;5.944;2023-05-07T02:14:04;2.87;;;1.94;;
14663;SDS011;7419;52.184;5.944;2023-05-07T02:15:04;2.07;;;1.96;;
14663;SDS011;7419;52.184;5.944;2023-05-07T02:16:04;5.66;;;2.40;;
14663;SDS011;7419;52.184;5.944;2023-05-07T02:17:04;2.55;;;2.37;;
14663;SDS011;7419;52.184;5.944;2023-05-07T02:18:04;2.50;;;2.11;;
14663;SDS011;7419;52.184;5.944;2023-05-07T02:19:04;2.56;;;2.30;;
14663;SDS011;7419;52.184;5.944;2023-05-07T02:20:05;2.63;;;2.43;;
14663;SDS011;7419;52.184;5.944;2023-05-07T02:21:04;2.41;;;1.94;;
14663;SDS011;7419;52.184;5.944;2023-05-07T02:22:04;3.40;;;2.41;;
14663;SDS011;7419;52.184;5.944;2023-05-07T02:23:04;2.52;;;2.33;;
14663;SDS011;7419;52.184;5.944;2023-05-07T02:24:04;2.44;;;2.21;;
14663;SDS011;7419;52.184;5.944;2023-05-07T02:25:05;2.24;;;2.13;;
14663;SDS011;7419;52.184;5.944;2023-05-07T02:26:04;3.78;;;2.65;;
14663;SDS011;7419;52.184;5.944;2023-05-07T02:27:05;2.76;;;2.50;;
14663;SDS011;7419;52.184;5.944;2023-05-07T02:28:05;2.59;;;2.01;;
14663;SDS011;7419;52.184;5.944;2023-05-07T02:29:05;2.04;;;1.87;;
14663;SDS011;7419;52.184;5.944;2023-05-07T02:30:05;3.03;;;2.68;;
14663;SDS011;7419;52.184;5.944;2023-05-07T02:31:05;1.90;;;1.79;;
14663;SDS011;7419;52.184;5.944;2023-05-07T02:32:05;2.24;;;2.12;;
14663;SDS011;7419;52.184;5.944;2023-05-07T02:33:05;2.77;;;2.57;;
14663;SDS011;7419;52.184;5.944;2023-05-07T02:34:05;2.67;;;2.20;;
14663;SDS011;7419;52.184;5.944;2023-05-07T02:35:05;2.99;;;2.43;;
14663;SDS011;7419;52.184;5.944;2023-05-07T02:36:06;4.43;;;2.67;;
14663;SDS011;7419;52.184;5.944;2023-05-07T02:37:05;2.88;;;2.68;;
14663;SDS011;7419;52.184;5.944;2023-05-07T02:38:05;2.78;;;2.45;;
14663;SDS011;7419;52.184;5.944;2023-05-07T02:39:05;2.90;;;2.47;;
14663;SDS011;7419;52.184;5.944;2023-05-07T02:40:06;2.56;;;2.35;;
14663;SDS011;7419;52.184;5.944;2023-05-07T02:41:05;1.87;;;1.77;;
14663;SDS011;7419;52.184;5.944;2023-05-07T02:42:05;2.62;;;2.16;;
14663;SDS011;7419;52.184;5.944;2023-05-07T02:43:06;2.95;;;2.44;;
14663;SDS011;7419;52.184;5.944;2023-05-07T02:44:06;1.92;;;1.82;;
14663;SDS011;7419;52.184;5.944;2023-05-07T02:45:06;2.73;;;2.45;;
14663;SDS011;7419;52.184;5.944;2023-05-07T02:46:07;2.30;;;2.08;;
14663;SDS011;7419;52.184;5.944;2023-05-07T02:47:06;4.43;;;2.30;;
14663;SDS011;7419;52.184;5.944;2023-05-07T02:48:06;2.67;;;2.22;;
14663;SDS011;7419;52.184;5.944;2023-05-07T02:49:06;2.42;;;2.22;;
14663;SDS011;7419;52.184;5.944;2023-05-07T02:50:07;2.64;;;2.44;;
14663;SDS011;7419;52.184;5.944;2023-05-07T02:51:06;3.32;;;2.78;;
14663;SDS011;7419;52.184;5.944;2023-05-07T02:52:06;2.99;;;2.77;;
14663;SDS011;7419;52.184;5.944;2023-05-07T02:53:06;4.70;;;2.63;;
14663;SDS011;7419;52.184;5.944;2023-05-07T02:54:06;2.69;;;2.49;;
14663;SDS011;7419;52.184;5.944;2023-05-07T02:55:07;2.29;;;2.13;;
14663;SDS011;7419;52.184;5.944;2023-05-07T02:56:06;3.24;;;2.72;;
14663;SDS011;7419;52.184;5.944;2023-05-07T02:57:06;2.87;;;2.64;;
14663;SDS011;7419;52.184;5.944;2023-05-07T02:58:06;3.13;;;2.68;;
14663;SDS011;7419;52.184;5.944;2023-05-07T02:59:07;2.76;;;2.56;;
14663;SDS011;7419;52.184;5.944;2023-05-07T03:00:10;2.77;;;2.57;;
14663;SDS011;7419;52.184;5.944;2023-05-07T03:01:07;2.11;;;2.01;;
14663;SDS011;7419;52.184;5.944;2023-05-07T03:02:07;2.88;;;2.54;;
14663;SDS011;7419;52.184;5.944;2023-05-07T03:03:07;2.63;;;2.31;;
14663;SDS011;7419;52.184;5.944;2023-05-07T03:04:07;2.61;;;2.34;;
14663;SDS011;7419;52.184;5.944;2023-05-07T03:05:07;2.94;;;2.60;;
14663;SDS011;7419;52.184;5.944;2023-05-07T03:06:07;3.92;;;2.88;;
14663;SDS011;7419;52.184;5.944;2023-05-07T03:07:07;3.24;;;2.99;;
14663;SDS011;7419;52.184;5.944;2023-05-07T03:08:07;3.71;;;3.14;;
14663;SDS011;7419;52.184;5.944;2023-05-07T03:09:07;3.78;;;3.00;;
14663;SDS011;7419;52.184;5.944;2023-05-07T03:10:07;3.42;;;3.11;;
14663;SDS011;7419;52.184;5.944;2023-05-07T03:11:07;4.48;;;3.27;;
14663;SDS011;7419;52.184;5.944;2023-05-07T03:12:07;3.37;;;2.95;;
14663;SDS011;7419;52.184;5.944;2023-05-07T03:13:07;4.32;;;3.14;;
14663;SDS011;7419;52.184;5.944;2023-05-07T03:14:07;4.55;;;3.91;;
14663;SDS011;7419;52.184;5.944;2023-05-07T03:15:08;3.89;;;3.53;;
14663;SDS011;7419;52.184;5.944;2023-05-07T03:16:08;5.27;;;3.72;;
14663;SDS011;7419;52.184;5.944;2023-05-07T03:17:08;4.86;;;3.43;;
14663;SDS011;7419;52.184;5.944;2023-05-07T03:18:08;5.71;;;3.35;;
14663;SDS011;7419;52.184;5.944;2023-05-07T03:19:08;3.74;;;3.37;;
14663;SDS011;7419;52.184;5.944;2023-05-07T03:20:08;4.57;;;3.84;;
14663;SDS011;7419;52.184;5.944;2023-05-07T03:21:08;4.74;;;3.66;;
14663;SDS011;7419;52.184;5.944;2023-05-07T03:22:08;4.32;;;3.78;;
14663;SDS011;7419;52.184;5.944;2023-05-07T03:23:08;5.94;;;3.70;;
14663;SDS011;7419;52.184;5.944;2023-05-07T03:24:08;4.50;;;3.91;;
14663;SDS011;7419;52.184;5.944;2023-05-07T03:25:09;6.73;;;4.76;;
14663;SDS011;7419;52.184;5.944;2023-05-07T03:26:08;4.64;;;4.03;;
14663;SDS011;7419;52.184;5.944;2023-05-07T03:27:08;7.76;;;3.92;;
14663;SDS011;7419;52.184;5.944;2023-05-07T03:28:08;4.63;;;4.16;;
14663;SDS011;7419;52.184;5.944;2023-05-07T03:29:09;5.04;;;4.01;;
14663;SDS011;7419;52.184;5.944;2023-05-07T03:30:09;5.88;;;4.20;;
14663;SDS011;7419;52.184;5.944;2023-05-07T03:31:09;5.32;;;4.54;;
14663;SDS011;7419;52.184;5.944;2023-05-07T03:32:09;5.51;;;4.60;;
14663;SDS011;7419;52.184;5.944;2023-05-07T03:33:09;5.22;;;4.63;;
14663;SDS011;7419;52.184;5.944;2023-05-07T03:34:09;5.53;;;4.15;;
14663;SDS011;7419;52.184;5.944;2023-05-07T03:35:09;5.64;;;4.00;;
14663;SDS011;7419;52.184;5.944;2023-05-07T03:36:09;5.50;;;4.33;;
14663;SDS011;7419;52.184;5.944;2023-05-07T03:37:09;6.38;;;5.04;;
14663;SDS011;7419;52.184;5.944;2023-05-07T03:38:09;7.98;;;4.40;;
14663;SDS011;7419;52.184;5.944;2023-05-07T03:39:09;7.30;;;4.95;;
14663;SDS011;7419;52.184;5.944;2023-05-07T03:40:10;6.28;;;4.45;;
14663;SDS011;7419;52.184;5.944;2023-05-07T03:41:09;6.13;;;4.57;;
14663;SDS011;7419;52.184;5.944;2023-05-07T03:42:09;5.32;;;4.50;;
14663;SDS011;7419;52.184;5.944;2023-05-07T03:43:09;6.01;;;4.84;;
14663;SDS011;7419;52.184;5.944;2023-05-07T03:44:09;5.77;;;4.97;;
14663;SDS011;7419;52.184;5.944;2023-05-07T03:45:10;5.97;;;4.83;;
14663;SDS011;7419;52.184;5.944;2023-05-07T03:46:10;5.77;;;4.49;;
14663;SDS011;7419;52.184;5.944;2023-05-07T03:47:10;7.09;;;4.57;;
14663;SDS011;7419;52.184;5.944;2023-05-07T03:48:10;5.97;;;4.92;;
14663;SDS011;7419;52.184;5.944;2023-05-07T03:49:10;6.39;;;4.95;;
14663;SDS011;7419;52.184;5.944;2023-05-07T03:50:10;6.33;;;4.82;;
14663;SDS011;7419;52.184;5.944;2023-05-07T03:51:10;7.13;;;5.01;;
14663;SDS011;7419;52.184;5.944;2023-05-07T03:52:10;7.54;;;5.42;;
14663;SDS011;7419;52.184;5.944;2023-05-07T03:53:10;5.79;;;4.88;;
14663;SDS011;7419;52.184;5.944;2023-05-07T03:54:10;8.35;;;5.01;;
14663;SDS011;7419;52.184;5.944;2023-05-07T03:55:10;7.34;;;5.24;;
14663;SDS011;7419;52.184;5.944;2023-05-07T03:56:10;5.57;;;4.71;;
14663;SDS011;7419;52.184;5.944;2023-05-07T03:57:10;5.31;;;4.66;;
14663;SDS011;7419;52.184;5.944;2023-05-07T03:58:10;6.86;;;5.19;;
14663;SDS011;7419;52.184;5.944;2023-05-07T03:59:11;5.38;;;4.88;;
14663;SDS011;7419;52.184;5.944;2023-05-07T04:00:11;6.04;;;4.81;;
14663;SDS011;7419;52.184;5.944;2023-05-07T04:01:11;7.53;;;5.15;;
14663;SDS011;7419;52.184;5.944;2023-05-07T04:02:11;7.94;;;5.36;;
14663;SDS011;7419;52.184;5.944;2023-05-07T04:03:11;6.22;;;5.57;;
14663;SDS011;7419;52.184;5.944;2023-05-07T04:04:11;7.31;;;5.49;;
14663;SDS011;7419;52.184;5.944;2023-05-07T04:05:11;9.72;;;6.11;;
14663;SDS011;7419;52.184;5.944;2023-05-07T04:06:11;6.51;;;5.07;;
14663;SDS011;7419;52.184;5.944;2023-05-07T04:07:11;6.54;;;5.39;;
14663;SDS011;7419;52.184;5.944;2023-05-07T04:08:11;7.93;;;6.13;;
14663;SDS011;7419;52.184;5.944;2023-05-07T04:09:11;8.00;;;5.27;;
14663;SDS011;7419;52.184;5.944;2023-05-07T04:10:11;8.64;;;5.61;;
14663;SDS011;7419;52.184;5.944;2023-05-07T04:11:11;7.24;;;5.48;;
14663;SDS011;7419;52.184;5.944;2023-05-07T04:12:11;6.35;;;5.32;;
14663;SDS011;7419;52.184;5.944;2023-05-07T04:13:11;7.09;;;5.21;;
14663;SDS011;7419;52.184;5.944;2023-05-07T04:14:11;6.32;;;5.31;;
14663;SDS011;7419;52.184;5.944;2023-05-07T04:15:12;7.41;;;5.64;;
14663;SDS011;7419;52.184;5.944;2023-05-07T04:16:12;6.24;;;4.98;;
14663;SDS011;7419;52.184;5.944;2023-05-07T04:17:12;7.17;;;5.05;;
14663;SDS011;7419;52.184;5.944;2023-05-07T04:18:12;8.30;;;5.55;;
14663;SDS011;7419;52.184;5.944;2023-05-07T04:19:12;6.79;;;5.72;;
14663;SDS011;7419;52.184;5.944;2023-05-07T04:20:13;6.95;;;5.51;;
14663;SDS011;7419;52.184;5.944;2023-05-07T04:21:13;8.19;;;6.03;;
14663;SDS011;7419;52.184;5.944;2023-05-07T04:22:12;7.75;;;5.52;;
14663;SDS011;7419;52.184;5.944;2023-05-07T04:23:12;6.99;;;5.77;;
14663;SDS011;7419;52.184;5.944;2023-05-07T04:24:12;8.33;;;5.81;;
14663;SDS011;7419;52.184;5.944;2023-05-07T04:25:12;7.78;;;5.68;;
14663;SDS011;7419;52.184;5.944;2023-05-07T04:26:12;9.09;;;5.83;;
14663;SDS011;7419;52.184;5.944;2023-05-07T04:27:12;6.62;;;5.03;;
14663;SDS011;7419;52.184;5.944;2023-05-07T04:28:12;9.09;;;6.09;;
14663;SDS011;7419;52.184;5.944;2023-05-07T04:29:12;7.31;;;5.42;;
14663;SDS011;7419;52.184;5.944;2023-05-07T04:30:13;6.85;;;5.83;;
14663;SDS011;7419;52.184;5.944;2023-05-07T04:31:13;6.87;;;5.76;;
14663;SDS011;7419;52.184;5.944;2023-05-07T04:32:13;7.19;;;5.50;;
14663;SDS011;7419;52.184;5.944;2023-05-07T04:33:13;6.48;;;5.17;;
14663;SDS011;7419;52.184;5.944;2023-05-07T04:34:13;8.14;;;5.79;;
14663;SDS011;7419;52.184;5.944;2023-05-07T04:35:13;7.71;;;5.29;;
14663;SDS011;7419;52.184;5.944;2023-05-07T04:36:13;6.75;;;5.48;;
14663;SDS011;7419;52.184;5.944;2023-05-07T04:37:13;7.46;;;6.01;;
14663;SDS011;7419;52.184;5.944;2023-05-07T04:38:13;11.25;;;5.60;;
14663;SDS011;7419;52.184;5.944;2023-05-07T04:39:13;6.24;;;5.25;;
14663;SDS011;7419;52.184;5.944;2023-05-07T04:40:13;7.61;;;5.90;;
14663;SDS011;7419;52.184;5.944;2023-05-07T04:41:13;8.61;;;5.40;;
14663;SDS011;7419;52.184;5.944;2023-05-07T04:42:14;7.14;;;5.51;;
14663;SDS011;7419;52.184;5.944;2023-05-07T04:43:13;6.70;;;5.41;;
14663;SDS011;7419;52.184;5.944;2023-05-07T04:44:13;9.08;;;5.86;;
14663;SDS011;7419;52.184;5.944;2023-05-07T04:45:13;7.19;;;5.76;;
14663;SDS011;7419;52.184;5.944;2023-05-07T04:46:13;7.35;;;5.93;;
14663;SDS011;7419;52.184;5.944;2023-05-07T04:47:13;7.62;;;5.83;;
14663;SDS011;7419;52.184;5.944;2023-05-07T04:48:14;6.89;;;5.39;;
14663;SDS011;7419;52.184;5.944;2023-05-07T04:49:14;6.66;;;5.21;;
14663;SDS011;7419;52.184;5.944;2023-05-07T04:50:14;6.60;;;5.21;;
14663;SDS011;7419;52.184;5.944;2023-05-07T04:51:14;8.73;;;5.54;;
14663;SDS011;7419;52.184;5.944;2023-05-07T04:52:14;7.16;;;5.56;;
14663;SDS011;7419;52.184;5.944;2023-05-07T04:53:14;7.25;;;5.44;;
14663;SDS011;7419;52.184;5.944;2023-05-07T04:54:14;8.05;;;5.39;;
14663;SDS011;7419;52.184;5.944;2023-05-07T04:55:14;7.60;;;5.86;;
14663;SDS011;7419;52.184;5.944;2023-05-07T04:56:14;6.73;;;5.65;;
14663;SDS011;7419;52.184;5.944;2023-05-07T04:57:14;7.44;;;5.99;;
14663;SDS011;7419;52.184;5.944;2023-05-07T04:58:14;6.97;;;6.27;;
14663;SDS011;7419;52.184;5.944;2023-05-07T04:59:14;7.70;;;5.64;;
14663;SDS011;7419;52.184;5.944;2023-05-07T05:00:15;8.24;;;6.33;;
14663;SDS011;7419;52.184;5.944;2023-05-07T05:01:14;7.13;;;5.31;;
14663;SDS011;7419;52.184;5.944;2023-05-07T05:02:15;9.11;;;5.59;;
14663;SDS011;7419;52.184;5.944;2023-05-07T05:03:15;8.21;;;6.41;;
14663;SDS011;7419;52.184;5.944;2023-05-07T05:04:15;8.06;;;6.53;;
14663;SDS011;7419;52.184;5.944;2023-05-07T05:05:15;7.85;;;6.01;;
14663;SDS011;7419;52.184;5.944;2023-05-07T05:06:15;7.74;;;6.36;;
14663;SDS011;7419;52.184;5.944;2023-05-07T05:07:15;9.26;;;6.34;;
14663;SDS011;7419;52.184;5.944;2023-05-07T05:08:15;6.96;;;5.66;;
14663;SDS011;7419;52.184;5.944;2023-05-07T05:09:15;7.64;;;6.32;;
14663;SDS011;7419;52.184;5.944;2023-05-07T05:10:15;8.13;;;6.08;;
14663;SDS011;7419;52.184;5.944;2023-05-07T05:11:15;9.83;;;6.12;;
14663;SDS011;7419;52.184;5.944;2023-05-07T05:12:15;9.19;;;6.10;;
14663;SDS011;7419;52.184;5.944;2023-05-07T05:13:15;9.02;;;6.36;;
14663;SDS011;7419;52.184;5.944;2023-05-07T05:14:15;8.60;;;5.93;;
14663;SDS011;7419;52.184;5.944;2023-05-07T05:15:15;7.92;;;6.31;;
14663;SDS011;7419;52.184;5.944;2023-05-07T05:16:15;8.94;;;6.38;;
14663;SDS011;7419;52.184;5.944;2023-05-07T05:17:16;7.75;;;6.28;;
14663;SDS011;7419;52.184;5.944;2023-05-07T05:18:16;9.28;;;5.69;;
14663;SDS011;7419;52.184;5.944;2023-05-07T05:19:16;7.91;;;6.83;;
14663;SDS011;7419;52.184;5.944;2023-05-07T05:20:16;8.57;;;6.51;;
14663;SDS011;7419;52.184;5.944;2023-05-07T05:21:16;7.36;;;6.28;;
14663;SDS011;7419;52.184;5.944;2023-05-07T05:22:16;9.91;;;6.72;;
14663;SDS011;7419;52.184;5.944;2023-05-07T05:23:16;9.85;;;5.99;;
14663;SDS011;7419;52.184;5.944;2023-05-07T05:24:16;8.99;;;6.72;;
14663;SDS011;7419;52.184;5.944;2023-05-07T05:25:16;9.17;;;6.48;;
14663;SDS011;7419;52.184;5.944;2023-05-07T05:26:16;8.60;;;6.13;;
14663;SDS011;7419;52.184;5.944;2023-05-07T05:27:16;7.79;;;5.60;;
14663;SDS011;7419;52.184;5.944;2023-05-07T05:28:16;8.58;;;6.14;;
14663;SDS011;7419;52.184;5.944;2023-05-07T05:29:16;9.32;;;6.83;;
14663;SDS011;7419;52.184;5.944;2023-05-07T05:30:16;8.06;;;6.29;;
14663;SDS011;7419;52.184;5.944;2023-05-07T05:31:17;9.11;;;6.62;;
14663;SDS011;7419;52.184;5.944;2023-05-07T05:32:17;9.10;;;6.66;;
14663;SDS011;7419;52.184;5.944;2023-05-07T05:33:17;7.42;;;5.95;;
14663;SDS011;7419;52.184;5.944;2023-05-07T05:34:17;10.41;;;7.07;;
14663;SDS011;7419;52.184;5.944;2023-05-07T05:35:17;9.57;;;6.59;;
14663;SDS011;7419;52.184;5.944;2023-05-07T05:36:17;12.65;;;6.34;;
14663;SDS011;7419;52.184;5.944;2023-05-07T05:37:17;8.39;;;6.82;;
14663;SDS011;7419;52.184;5.944;2023-05-07T05:38:17;8.34;;;6.87;;
14663;SDS011;7419;52.184;5.944;2023-05-07T05:39:17;12.59;;;6.99;;
14663;SDS011;7419;52.184;5.944;2023-05-07T05:40:17;9.63;;;6.78;;
14663;SDS011;7419;52.184;5.944;2023-05-07T05:41:17;8.59;;;6.12;;
14663;SDS011;7419;52.184;5.944;2023-05-07T05:42:17;10.12;;;6.88;;
14663;SDS011;7419;52.184;5.944;2023-05-07T05:43:17;9.84;;;6.49;;
14663;SDS011;7419;52.184;5.944;2023-05-07T05:44:17;8.93;;;6.25;;
14663;SDS011;7419;52.184;5.944;2023-05-07T05:45:18;8.77;;;6.04;;
14663;SDS011;7419;52.184;5.944;2023-05-07T05:46:18;8.41;;;5.99;;
14663;SDS011;7419;52.184;5.944;2023-05-07T05:47:18;8.40;;;6.27;;
14663;SDS011;7419;52.184;5.944;2023-05-07T05:48:18;10.49;;;6.84;;
14663;SDS011;7419;52.184;5.944;2023-05-07T05:49:18;9.01;;;7.19;;
14663;SDS011;7419;52.184;5.944;2023-05-07T05:50:18;10.02;;;6.23;;
14663;SDS011;7419;52.184;5.944;2023-05-07T05:51:18;10.84;;;6.73;;
14663;SDS011;7419;52.184;5.944;2023-05-07T05:52:18;8.36;;;5.96;;
14663;SDS011;7419;52.184;5.944;2023-05-07T05:53:18;8.93;;;6.58;;
14663;SDS011;7419;52.184;5.944;2023-05-07T05:54:18;7.43;;;5.88;;
14663;SDS011;7419;52.184;5.944;2023-05-07T05:55:18;8.97;;;6.14;;
14663;SDS011;7419;52.184;5.944;2023-05-07T05:56:19;9.70;;;6.54;;
14663;SDS011;7419;52.184;5.944;2023-05-07T05:57:18;8.76;;;6.89;;
14663;SDS011;7419;52.184;5.944;2023-05-07T05:58:19;9.01;;;6.05;;
14663;SDS011;7419;52.184;5.944;2023-05-07T05:59:18;10.81;;;5.80;;
14663;SDS011;7419;52.184;5.944;2023-05-07T06:00:18;8.63;;;6.17;;
14663;SDS011;7419;52.184;5.944;2023-05-07T06:01:19;10.10;;;6.37;;
14663;SDS011;7419;52.184;5.944;2023-05-07T06:02:19;8.59;;;5.49;;
14663;SDS011;7419;52.184;5.944;2023-05-07T06:03:19;11.48;;;6.17;;
14663;SDS011;7419;52.184;5.944;2023-05-07T06:04:19;10.64;;;6.46;;
14663;SDS011;7419;52.184;5.944;2023-05-07T06:05:19;9.64;;;6.27;;
14663;SDS011;7419;52.184;5.944;2023-05-07T06:06:19;8.61;;;5.51;;
14663;SDS011;7419;52.184;5.944;2023-05-07T06:07:20;10.02;;;6.29;;